Time;durP1;ratioP1;P1;durP2;ratioP2;P2;SDS_P1;SDS_P2;PMS_P1;PMS_P2;Temp;Humidity;BMP_temperature;BMP_pressure;BME280_temperature;BME280_humidity;BME280_pressure;Samples;Min_cycle;Max_cycle;Signal;HPM_P1;HPM_P2
2021/05/26 00:01:22;;;;;;;;;;;;;;;29.44;34.59;100924.56;5059250;28;819;-29
2021/05/26 00:03:47;;;;;;;;;;;;;;;29.50;34.46;100927.50;5059033;28;788;-29
2021/05/26 00:06:13;;;;;;;;;;;;;;;29.46;34.19;100927.06;5058528;28;776;-29
2021/05/26 00:08:38;;;;;;;;;;;;;;;29.44;34.63;100923.72;5059170;28;740;-29
2021/05/26 00:11:04;;;;;;;;;;;;;;;29.43;34.33;100919.31;5058035;28;1961;-28
2021/05/26 00:13:30;;;;;;;;;;;;;;;29.42;34.61;100921.19;5058743;28;1318;-29
2021/05/26 00:15:55;;;;;;;;;;;;;;;29.50;34.61;100916.66;5058260;28;826;-28
2021/05/26 00:18:21;;;;;;;;;;;;;;;29.42;34.84;100910.34;5058550;28;775;-29
2021/05/26 00:20:47;;;;;;;;;;;;;;;29.48;34.46;100903.31;5058594;28;756;-28
2021/05/26 00:23:12;;;;;;;;;;;;;;;29.49;34.63;100904.16;5058334;28;795;-28
2021/05/26 00:25:38;;;;;;;;;;;;;;;29.52;34.56;100901.03;5058730;28;779;-29
2021/05/26 00:28:03;;;;;;;;;;;;;;;29.49;34.59;100896.88;5057998;28;971;-28
2021/05/26 00:30:31;;;;;;;;;;;;;;;29.50;34.55;100894.97;5058844;28;1980;-30
2021/05/26 00:32:56;;;;;;;;;;;;;;;29.41;34.75;100892.41;5058323;28;802;-27
2021/05/26 00:35:22;;;;;;;;;;;;;;;29.44;34.56;100886.63;5058222;28;910;-29
2021/05/26 00:37:47;;;;;;;;;;;;;;;29.43;34.83;100892.22;5057854;28;840;-28
2021/05/26 00:40:12;;;;;;;;;;;;;;;29.48;34.67;100888.94;5058156;28;1431;-27
2021/05/26 00:42:39;;;;;;;;;;;;;;;29.51;34.54;100889.34;5073550;28;991;-27
2021/05/26 00:45:04;;;;;;;;;;;;;;;29.52;34.85;100877.50;5038535;28;750;-26
2021/05/26 00:47:35;;;;;;;;;;;;;;;29.45;34.74;100882.03;5037058;28;815;-27
2021/05/26 00:50:01;;;;;;;;;;;;;;;29.63;34.46;100876.13;5037423;28;1902;-29
2021/05/26 00:52:26;;;;;;;;;;;;;;;29.46;34.74;100881.00;5037846;28;839;-27
2021/05/26 00:54:51;;;;;;;;;;;;;;;29.53;34.76;100872.94;5038192;28;764;-26
2021/05/26 00:57:16;;;;;;;;;;;;;;;29.55;34.61;100862.69;5038788;28;824;-27
2021/05/26 00:59:42;;;;;;;;;;;;;;;29.54;34.83;100874.59;5033755;28;996;-26
2021/05/26 01:02:07;;;;;;;;;;;;;;;29.57;34.61;100866.06;5036532;28;800;-26
2021/05/26 01:04:32;;;;;;;;;;;;;;;29.54;34.87;100875.44;5037852;28;751;-28
2021/05/26 01:06:57;;;;;;;;;;;;;;;29.57;34.56;100876.91;5037624;28;836;-28
2021/05/26 01:09:25;;;;;;;;;;;;;;;29.55;34.58;100866.25;5041634;28;1210;-27
2021/05/26 01:11:50;;;;;;;;;;;;;;;29.60;34.65;100868.41;5057336;28;1968;-26
2021/05/26 01:14:15;;;;;;;;;;;;;;;29.53;34.62;100862.09;5056225;28;1290;-28
2021/05/26 01:16:40;;;;;;;;;;;;;;;29.56;34.78;100867.09;5057898;28;804;-28
2021/05/26 01:19:06;;;;;;;;;;;;;;;29.56;34.68;100869.81;5057192;28;879;-29
2021/05/26 01:21:31;;;;;;;;;;;;;;;29.56;34.66;100864.41;5057152;28;764;-26
2021/05/26 01:23:56;;;;;;;;;;;;;;;29.58;34.52;100862.31;5057825;28;816;-30
2021/05/26 01:26:21;;;;;;;;;;;;;;;29.52;34.97;100863.09;5057302;28;752;-27
2021/05/26 01:28:47;;;;;;;;;;;;;;;29.54;34.75;100861.03;5056106;28;956;-27
2021/05/26 01:31:12;;;;;;;;;;;;;;;29.54;34.79;100867.31;5056781;28;1969;-29
2021/05/26 01:33:37;;;;;;;;;;;;;;;29.54;34.97;100858.34;5057157;28;772;-30
2021/05/26 01:36:03;;;;;;;;;;;;;;;29.54;34.79;100863.75;5057434;28;831;-27
2021/05/26 01:38:28;;;;;;;;;;;;;;;29.61;34.79;100869.25;5057869;28;728;-26
2021/05/26 01:40:57;;;;;;;;;;;;;;;29.52;35.14;100863.09;5056287;28;527;-29
2021/05/26 01:43:24;;;;;;;;;;;;;;;28.76;34.63;100733.47;5056214;28;1481;-27
2021/05/26 01:45:49;;;;;;;;;;;;;;;29.57;34.62;100855.22;5056587;28;787;-29
2021/05/26 01:48:14;;;;;;;;;;;;;;;29.52;35.03;100860.38;5056811;28;914;-28
2021/05/26 01:50:40;;;;;;;;;;;;;;;29.58;34.83;100860.44;5056297;28;1971;-27
2021/05/26 01:53:06;;;;;;;;;;;;;;;29.55;34.80;100860.84;5056798;28;823;-28
2021/05/26 01:55:31;;;;;;;;;;;;;;;29.49;34.98;100856.22;5056631;28;729;-29
2021/05/26 01:57:57;;;;;;;;;;;;;;;29.58;34.84;100852.31;5055806;28;960;-27
2021/05/26 02:00:22;;;;;;;;;;;;;;;29.55;34.92;100860.00;5057488;28;787;-27
2021/05/26 02:02:47;;;;;;;;;;;;;;;29.60;34.74;100863.00;5054982;28;881;-29
2021/05/26 02:05:13;;;;;;;;;;;;;;;29.50;34.99;100863.31;5056589;28;855;-29
2021/05/26 02:07:38;;;;;;;;;;;;;;;29.55;34.99;100860.84;5056101;28;858;-29
2021/05/26 02:10:05;;;;;;;;;;;;;;;29.53;34.98;100862.09;5055043;28;1914;-28
2021/05/26 02:12:33;;;;;;;;;;;;;;;29.53;34.87;100868.31;5056511;28;1312;-27
2021/05/26 02:14:59;;;;;;;;;;;;;;;29.54;34.92;100872.72;5055724;28;1030;-29
2021/05/26 02:17:24;;;;;;;;;;;;;;;29.58;34.95;100865.00;5055933;28;894;-28
2021/05/26 02:19:50;;;;;;;;;;;;;;;29.51;35.24;100866.84;5038661;28;1190;-29
2021/05/26 02:22:16;;;;;;;;;;;;;;;29.48;35.05;100861.84;5056390;28;784;-29
2021/05/26 02:24:41;;;;;;;;;;;;;;;29.50;35.03;100862.44;5070927;28;777;-28
2021/05/26 02:27:07;;;;;;;;;;;;;;;29.42;35.16;100860.72;5056619;28;724;-27
2021/05/26 02:29:32;;;;;;;;;;;;;;;29.42;34.98;100866.16;5055381;28;963;-30
2021/05/26 02:31:57;;;;;;;;;;;;;;;29.41;35.46;100857.19;5055827;28;1969;-27
2021/05/26 02:34:23;;;;;;;;;;;;;;;29.47;35.19;100861.00;5055836;28;957;-30
2021/05/26 02:36:48;;;;;;;;;;;;;;;29.45;35.17;100860.34;5056696;28;783;-30
2021/05/26 02:39:13;;;;;;;;;;;;;;;29.41;35.15;100850.94;5056011;28;792;-28
2021/05/26 02:41:39;;;;;;;;;;;;;;;29.38;35.43;100856.75;5056119;28;834;-27
2021/05/26 02:44:04;;;;;;;;;;;;;;;29.34;35.45;100859.00;5056275;28;991;-30
2021/05/26 02:46:29;;;;;;;;;;;;;;;29.28;35.50;100863.31;5055419;28;749;-30
2021/05/26 02:48:55;;;;;;;;;;;;;;;29.33;35.36;100876.28;5055859;28;752;-28
2021/05/26 02:51:20;;;;;;;;;;;;;;;29.31;35.57;100875.66;5055706;28;1906;-30
2021/05/26 02:53:45;;;;;;;;;;;;;;;29.31;35.52;100881.91;5055541;28;807;-29
2021/05/26 02:56:11;;;;;;;;;;;;;;;29.28;35.32;100878.78;5056447;28;787;-28
2021/05/26 02:58:37;;;;;;;;;;;;;;;29.23;35.74;100875.81;5055359;28;960;-29
2021/05/26 03:01:02;;;;;;;;;;;;;;;29.30;35.47;100880.25;5055981;28;779;-28
2021/05/26 03:03:27;;;;;;;;;;;;;;;29.26;35.41;100889.78;5070416;28;820;-30
2021/05/26 03:05:53;;;;;;;;;;;;;;;29.20;35.61;100890.56;5056290;28;782;-27
2021/05/26 03:08:18;;;;;;;;;;;;;;;29.24;35.55;100891.84;5055801;28;812;-30
2021/05/26 03:10:43;;;;;;;;;;;;;;;29.30;35.47;100890.22;5055150;28;1902;-27
2021/05/26 03:13:08;;;;;;;;;;;;;;;29.23;35.05;100898.28;5055783;28;1096;-29
2021/05/26 03:15:34;;;;;;;;;;;;;;;28.69;34.84;100900.41;5059418;28;863;-29
2021/05/26 03:17:59;;;;;;;;;;;;;;;28.30;35.03;100902.38;5060422;28;775;-26
2021/05/26 03:20:24;;;;;;;;;;;;;;;27.93;35.82;100899.56;5058709;28;891;-26
2021/05/26 03:22:49;;;;;;;;;;;;;;;27.61;36.91;100903.22;5059527;28;961;-26
2021/05/26 03:25:15;;;;;;;;;;;;;;;27.48;37.23;100897.59;5059424;28;823;-26
2021/05/26 03:27:40;;;;;;;;;;;;;;;27.29;37.92;100901.66;5059317;28;1022;-26
2021/05/26 03:30:09;;;;;;;;;;;;;;;27.11;37.92;100905.50;5058338;28;1934;-26
2021/05/26 03:32:35;;;;;;;;;;;;;;;26.97;38.43;100905.22;5059737;28;783;-27
2021/05/26 03:35:00;;;;;;;;;;;;;;;26.90;38.34;100899.69;5058630;28;1113;-26
2021/05/26 03:37:26;;;;;;;;;;;;;;;26.75;38.89;100896.91;5059129;28;814;-26
2021/05/26 03:39:51;;;;;;;;;;;;;;;26.71;38.93;100902.84;5059438;28;858;-27
2021/05/26 03:42:16;;;;;;;;;;;;;;;26.63;39.18;100901.84;5059604;28;822;-26
2021/05/26 03:44:41;;;;;;;;;;;;;;;26.53;39.45;100899.38;5058555;28;951;-26
2021/05/26 03:47:07;;;;;;;;;;;;;;;26.52;39.72;100902.25;5058507;28;799;-26
2021/05/26 03:49:32;;;;;;;;;;;;;;;26.47;40.08;100910.00;5059641;28;847;-26
2021/05/26 03:51:57;;;;;;;;;;;;;;;26.45;40.01;100910.19;5059296;28;1902;-26
2021/05/26 03:54:23;;;;;;;;;;;;;;;26.54;39.76;100913.69;5057671;28;1043;-25
2021/05/26 03:56:48;;;;;;;;;;;;;;;26.81;39.20;100914.22;5059688;28;822;-28
2021/05/26 03:59:13;;;;;;;;;;;;;;;26.87;39.43;100913.53;5058888;28;1007;-29
2021/05/26 04:01:38;;;;;;;;;;;;;;;26.79;39.69;100913.59;5058725;28;760;-28
2021/05/26 04:04:04;;;;;;;;;;;;;;;26.52;40.77;100916.56;5059277;28;824;-25
2021/05/26 04:06:29;;;;;;;;;;;;;;;26.25;41.39;100918.66;5059530;28;743;-25
2021/05/26 04:08:55;;;;;;;;;;;;;;;26.10;41.70;100906.88;5058669;28;878;-26
2021/05/26 04:11:20;;;;;;;;;;;;;;;25.85;42.32;100913.19;5059056;28;1971;-26
2021/05/26 04:13:45;;;;;;;;;;;;;;;25.30;43.82;100912.81;5058175;28;1089;-25
2021/05/26 04:16:10;;;;;;;;;;;;;;;24.95;45.06;100912.91;5058727;28;811;-25
2021/05/26 04:18:36;;;;;;;;;;;;;;;24.80;45.70;100915.38;5059023;28;720;-28
2021/05/26 04:21:02;;;;;;;;;;;;;;;24.51;46.13;100917.44;5059097;28;772;-26
2021/05/26 04:23:27;;;;;;;;;;;;;;;24.78;45.64;100920.06;5058498;28;803;-27
2021/05/26 04:25:52;;;;;;;;;;;;;;;24.74;45.77;100916.03;5058544;28;779;-28
2021/05/26 04:28:18;;;;;;;;;;;;;;;24.68;46.48;100920.19;5058092;28;1030;-26
2021/05/26 04:30:44;;;;;;;;;;;;;;;24.56;46.16;100920.50;5058579;28;1975;-27
2021/05/26 04:33:09;;;;;;;;;;;;;;;24.57;45.92;100915.97;5059104;28;725;-28
2021/05/26 04:35:34;;;;;;;;;;;;;;;24.42;46.80;100916.56;5058458;28;847;-27
2021/05/26 04:38:00;;;;;;;;;;;;;;;24.35;47.42;100918.22;5058131;28;800;-28
2021/05/26 04:40:26;;;;;;;;;;;;;;;24.20;47.00;100920.66;5058406;28;954;-27
2021/05/26 04:42:51;;;;;;;;;;;;;;;24.38;47.00;100919.72;5057629;28;940;-26
2021/05/26 04:45:17;;;;;;;;;;;;;;;24.19;47.03;100927.03;5057990;28;855;-28
2021/05/26 04:47:42;;;;;;;;;;;;;;;24.69;46.16;100922.72;5058421;28;795;-28
2021/05/26 04:50:08;;;;;;;;;;;;;;;25.06;44.93;100919.81;5058284;28;1902;-29
2021/05/26 04:52:33;;;;;;;;;;;;;;;25.13;44.93;100928.94;5058013;28;740;-29
2021/05/26 04:54:58;;;;;;;;;;;;;;;25.34;44.30;100926.78;5058182;28;803;-27
2021/05/26 04:57:24;;;;;;;;;;;;;;;25.26;44.49;100935.69;5058483;28;802;-27
2021/05/26 04:59:49;;;;;;;;;;;;;;;25.30;44.24;100931.66;5057469;28;968;-26
2021/05/26 05:02:14;;;;;;;;;;;;;;;25.38;44.08;100937.06;5057998;28;819;-27
2021/05/26 05:04:39;;;;;;;;;;;;;;;25.15;43.63;100932.31;5058027;28;806;-27
2021/05/26 05:07:05;;;;;;;;;;;;;;;25.09;43.93;100942.91;5057822;28;752;-26
2021/05/26 05:09:30;;;;;;;;;;;;;;;24.94;44.05;100944.38;5057923;28;1164;-26
2021/05/26 05:11:55;;;;;;;;;;;;;;;25.26;43.15;100936.53;5057294;28;1894;-26
2021/05/26 05:14:21;;;;;;;;;;;;;;;25.39;43.64;100946.81;5057282;28;968;-26
2021/05/26 05:16:46;;;;;;;;;;;;;;;25.17;44.18;100943.75;5057719;28;880;-28
2021/05/26 05:19:11;;;;;;;;;;;;;;;24.50;44.98;100953.41;5057941;28;768;-26
2021/05/26 05:21:36;;;;;;;;;;;;;;;25.07;43.98;100953.84;5057518;28;846;-27
2021/05/26 05:24:02;;;;;;;;;;;;;;;25.56;42.83;100955.75;5057610;28;740;-27
2021/05/26 05:26:27;;;;;;;;;;;;;;;25.88;41.90;100960.50;5057585;28;791;-26
2021/05/26 05:28:52;;;;;;;;;;;;;;;25.94;42.07;100967.06;5056929;28;964;-32
2021/05/26 05:31:17;;;;;;;;;;;;;;;26.19;41.54;100965.19;5057410;28;1910;-28
2021/05/26 05:33:43;;;;;;;;;;;;;;;26.14;40.84;100962.16;5058271;28;815;-26
2021/05/26 05:36:09;;;;;;;;;;;;;;;26.25;41.26;100975.28;5056730;28;816;-27
2021/05/26 05:38:35;;;;;;;;;;;;;;;26.33;41.14;100979.00;5056613;28;808;-28
2021/05/26 05:41:00;;;;;;;;;;;;;;;26.42;40.63;100969.88;5057533;28;756;-27
2021/05/26 05:43:25;;;;;;;;;;;;;;;26.00;40.83;100977.16;5056680;28;995;-27
2021/05/26 05:45:51;;;;;;;;;;;;;;;25.94;40.94;100975.16;5057297;28;787;-29
2021/05/26 05:48:16;;;;;;;;;;;;;;;25.83;40.98;100979.88;5057416;28;841;-27
2021/05/26 05:50:41;;;;;;;;;;;;;;;25.76;41.08;100982.38;5057195;28;1898;-27
2021/05/26 05:53:07;;;;;;;;;;;;;;;25.84;40.75;100978.03;5057235;28;819;-28
2021/05/26 05:55:32;;;;;;;;;;;;;;;25.78;41.20;100984.91;5057236;28;736;-27
2021/05/26 05:58:01;;;;;;;;;;;;;;;25.63;41.34;100982.91;5056168;28;964;-29
2021/05/26 06:00:26;;;;;;;;;;;;;;;25.67;41.36;100986.09;5057027;28;820;-29
2021/05/26 06:02:52;;;;;;;;;;;;;;;25.56;41.23;100990.78;5056996;28;809;-27
2021/05/26 06:05:17;;;;;;;;;;;;;;;25.55;40.99;100983.72;5056673;28;526;-29
2021/05/26 06:07:42;;;;;;;;;;;;;;;25.51;41.27;100986.88;5056431;28;807;-29
2021/05/26 06:10:09;;;;;;;;;;;;;;;25.39;40.90;100992.59;5057027;28;1894;-29
2021/05/26 06:12:34;;;;;;;;;;;;;;;25.35;40.40;100983.16;5056630;28;1064;-27
2021/05/26 06:15:00;;;;;;;;;;;;;;;25.35;41.44;100983.16;5055947;28;1495;-28
2021/05/26 06:17:25;;;;;;;;;;;;;;;25.37;41.22;100981.16;5056618;28;780;-29
2021/05/26 06:19:51;;;;;;;;;;;;;;;25.39;41.36;100981.00;5056864;28;856;-29
2021/05/26 06:22:16;;;;;;;;;;;;;;;25.45;41.41;100983.00;5056107;28;861;-29
2021/05/26 06:24:42;;;;;;;;;;;;;;;25.43;41.53;100985.03;5056566;28;796;-28
2021/05/26 06:27:07;;;;;;;;;;;;;;;25.45;41.21;100983.00;5056778;28;782;-29
2021/05/26 06:29:32;;;;;;;;;;;;;;;25.42;40.60;100975.28;5056197;28;1007;-27
2021/05/26 06:31:58;;;;;;;;;;;;;;;25.45;41.52;100974.94;5056254;28;1915;-27
2021/05/26 06:34:23;;;;;;;;;;;;;;;25.46;41.79;100978.47;5056658;28;891;-28
2021/05/26 06:36:48;;;;;;;;;;;;;;;25.49;41.79;100981.66;5056602;28;788;-29
2021/05/26 06:39:14;;;;;;;;;;;;;;;25.55;41.77;100980.16;5056752;28;732;-28
2021/05/26 06:41:39;;;;;;;;;;;;;;;25.60;41.59;100980.50;5054505;28;1112;-28
2021/05/26 06:44:04;;;;;;;;;;;;;;;25.55;41.78;100975.63;5054773;28;1077;-28
2021/05/26 06:46:30;;;;;;;;;;;;;;;25.56;41.41;100979.16;5056292;28;740;-28
2021/05/26 06:48:55;;;;;;;;;;;;;;;25.50;40.38;100975.28;5055738;28;846;-28
2021/05/26 06:51:20;;;;;;;;;;;;;;;25.46;41.77;100971.22;5056171;28;1910;-29
2021/05/26 06:53:45;;;;;;;;;;;;;;;25.48;42.18;100968.38;5055953;28;978;-27
2021/05/26 06:56:11;;;;;;;;;;;;;;;25.57;42.13;100967.38;5056238;28;886;-28
2021/05/26 06:58:39;;;;;;;;;;;;;;;25.57;41.83;100964.69;5055760;28;975;-28
2021/05/26 07:01:04;;;;;;;;;;;;;;;25.65;41.62;100980.03;5055736;28;980;-28
2021/05/26 07:03:29;;;;;;;;;;;;;;;25.73;41.53;100985.44;5056630;28;728;-27
2021/05/26 07:05:54;;;;;;;;;;;;;;;25.76;40.59;100979.69;5055595;28;862;-27
2021/05/26 07:08:20;;;;;;;;;;;;;;;25.78;40.72;100980.38;5056238;28;795;-28
2021/05/26 07:10:45;;;;;;;;;;;;;;;25.76;41.59;100974.31;5056201;28;1902;-27
2021/05/26 07:13:11;;;;;;;;;;;;;;;25.84;41.39;100980.72;5054991;28;1084;-28
2021/05/26 07:15:36;;;;;;;;;;;;;;;25.96;41.13;100982.03;5056207;28;756;-27
2021/05/26 07:18:04;;;;;;;;;;;;;;;25.85;41.38;100983.25;5056581;28;747;-27
2021/05/26 07:20:30;;;;;;;;;;;;;;;25.78;41.70;100987.63;5055626;28;899;-29
2021/05/26 07:22:55;;;;;;;;;;;;;;;25.80;40.51;100985.59;5056121;28;783;-27
2021/05/26 07:25:20;;;;;;;;;;;;;;;25.83;40.13;100990.66;5056209;28;842;-27
2021/05/26 07:27:46;;;;;;;;;;;;;;;25.90;41.13;100998.91;5055424;28;979;-27
2021/05/26 07:30:11;;;;;;;;;;;;;;;25.79;41.59;100987.44;5055931;28;1921;-27
2021/05/26 07:32:37;;;;;;;;;;;;;;;25.80;41.65;100989.16;5055889;28;835;-28
2021/05/26 07:35:02;;;;;;;;;;;;;;;25.79;41.51;100990.13;5055568;28;807;-27
2021/05/26 07:37:27;;;;;;;;;;;;;;;25.80;41.68;100985.59;5055709;28;799;-27
2021/05/26 07:39:53;;;;;;;;;;;;;;;25.73;41.36;100971.09;5055660;28;854;-27
2021/05/26 07:42:18;;;;;;;;;;;;;;;25.70;40.90;100975.00;5055533;28;787;-28
2021/05/26 07:44:43;;;;;;;;;;;;;;;25.74;41.94;100979.00;5055833;28;1006;-29
2021/05/26 07:47:09;;;;;;;;;;;;;;;25.83;41.51;100969.09;5056088;28;736;-27
2021/05/26 07:49:34;;;;;;;;;;;;;;;25.82;41.79;100970.13;5055227;28;831;-29
2021/05/26 07:52:03;;;;;;;;;;;;;;;25.81;41.66;100968.41;5056334;28;1898;-29
2021/05/26 07:54:29;;;;;;;;;;;;;;;25.87;41.23;100969.59;5055812;28;764;-29
2021/05/26 07:56:56;;;;;;;;;;;;;;;25.84;41.51;100965.38;5055699;28;875;-28
2021/05/26 07:59:21;;;;;;;;;;;;;;;25.80;41.04;100978.38;5055566;28;995;-28
2021/05/26 08:01:47;;;;;;;;;;;;;;;25.82;40.56;100970.13;5058384;28;823;-28
2021/05/26 08:04:12;;;;;;;;;;;;;;;25.80;41.78;100977.50;5059061;28;811;-28
2021/05/26 08:06:37;;;;;;;;;;;;;;;25.83;41.64;100979.00;5059377;28;744;-28
2021/05/26 08:09:03;;;;;;;;;;;;;;;25.88;41.62;100980.22;5059149;28;1140;-27
2021/05/26 08:11:28;;;;;;;;;;;;;;;25.94;41.56;100980.53;5057869;28;1945;-27
2021/05/26 08:13:55;;;;;;;;;;;;;;;26.02;41.38;100977.84;5058463;28;1347;-27
2021/05/26 08:16:21;;;;;;;;;;;;;;;26.06;40.62;100975.66;5058807;28;756;-29
2021/05/26 08:18:46;;;;;;;;;;;;;;;25.97;40.24;100977.50;5058765;28;771;-28
2021/05/26 08:21:11;;;;;;;;;;;;;;;26.01;40.90;100978.84;5059030;28;784;-29
2021/05/26 08:23:37;;;;;;;;;;;;;;;25.92;41.23;100980.72;5058580;28;831;-28
2021/05/26 08:26:02;;;;;;;;;;;;;;;25.94;41.22;100978.69;5059191;28;754;-27
2021/05/26 08:28:28;;;;;;;;;;;;;;;25.96;41.40;100981.22;5058528;28;1027;-28
2021/05/26 08:30:53;;;;;;;;;;;;;;;25.98;41.11;100973.78;5058426;28;1922;-29
2021/05/26 08:33:18;;;;;;;;;;;;;;;25.95;39.66;100982.22;5058881;28;792;-27
2021/05/26 08:35:44;;;;;;;;;;;;;;;25.93;38.91;100982.38;5058509;28;815;-27
2021/05/26 08:38:09;;;;;;;;;;;;;;;26.04;40.18;100984.72;5058678;28;831;-30
2021/05/26 08:40:37;;;;;;;;;;;;;;;26.03;41.39;100988.47;5058744;28;752;-27
2021/05/26 08:43:02;;;;;;;;;;;;;;;26.06;41.44;100976.47;5058029;28;1008;-26
2021/05/26 08:45:28;;;;;;;;;;;;;;;26.06;41.54;100979.16;5058135;28;839;-28
2021/05/26 08:47:53;;;;;;;;;;;;;;;26.13;41.25;100982.03;5058605;28;847;-26
2021/05/26 08:50:19;;;;;;;;;;;;;;;26.16;40.21;100987.06;5058472;28;1961;-27
2021/05/26 08:52:44;;;;;;;;;;;;;;;26.38;40.53;100982.00;5057330;28;1246;-26
2021/05/26 08:55:13;;;;;;;;;;;;;;;26.64;39.79;100986.34;5039275;28;1325;-27
2021/05/26 08:57:38;;;;;;;;;;;;;;;26.88;39.22;100982.69;5030631;28;1979;-27
2021/05/26 09:00:05;;;;;;;;;;;;;;;26.64;40.18;100983.63;5058143;28;788;-26
2021/05/26 09:02:31;;;;;;;;;;;;;;;26.51;40.20;100978.78;5058541;28;701;-30
2021/05/26 09:04:56;;;;;;;;;;;;;;;26.68;39.75;100979.56;5057578;28;808;-28
2021/05/26 09:07:22;;;;;;;;;;;;;;;26.88;38.63;100976.44;5058174;28;805;-29
2021/05/26 09:09:51;;;;;;;;;;;;;;;26.58;38.66;100977.06;5057752;28;1124;-31
2021/05/26 09:12:23;;;;;;;;;;;;;;;26.45;39.43;100984.88;5056785;28;1898;-29
2021/05/26 09:14:51;;;;;;;;;;;;;;;26.26;39.75;100976.94;5058050;28;955;-28
2021/05/26 09:17:17;;;;;;;;;;;;;;;26.24;39.83;100970.06;5058066;28;756;-29
2021/05/26 09:19:42;;;;;;;;;;;;;;;26.22;39.51;100964.84;5057418;28;805;-30
2021/05/26 09:22:11;;;;;;;;;;;;;;;26.17;39.55;100965.34;5058149;28;870;-27
2021/05/26 09:24:36;;;;;;;;;;;;;;;26.23;38.73;100969.22;5057907;28;820;-28
2021/05/26 09:27:04;;;;;;;;;;;;;;;26.31;37.57;100957.56;5057515;28;752;-28
2021/05/26 09:29:36;;;;;;;;;;;;;;;26.57;37.35;100961.06;5057697;28;939;-27
2021/05/26 09:32:10;;;;;;;;;;;;;;;26.66;36.80;100954.59;5057366;28;1918;-27
2021/05/26 09:34:36;;;;;;;;;;;;;;;26.52;36.73;100953.50;5057243;28;783;-28
2021/05/26 09:37:05;;;;;;;;;;;;;;;26.38;36.79;100965.84;5058001;28;790;-27
2021/05/26 09:39:43;;;;;;;;;;;;;;;26.25;36.68;100959.09;5057837;28;748;-28
2021/05/26 09:42:21;;;;;;;;;;;;;;;26.31;37.00;100956.72;5057204;28;807;-28
2021/05/26 09:45:03;;;;;;;;;;;;;;;26.30;36.34;100961.28;5056761;28;974;-27
2021/05/26 09:47:37;;;;;;;;;;;;;;;26.32;37.00;100959.25;5056962;28;763;-28
2021/05/26 09:50:38;;;;;;;;;;;;;;;26.54;37.28;100962.25;5057393;28;795;-27
2021/05/26 09:53:16;;;;;;;;;;;;;;;25.57;36.60;100808.44;4976440;28;1530;-26
2021/05/26 09:55:42;;;;;;;;;;;;;;;26.61;36.36;100962.41;5047020;28;872;-28
2021/05/26 09:58:09;;;;;;;;;;;;;;;26.56;36.43;100956.69;5057017;28;952;-27
2021/05/26 10:00:34;;;;;;;;;;;;;;;26.57;35.58;100951.13;5056737;28;812;-26
2021/05/26 10:02:59;;;;;;;;;;;;;;;26.77;34.72;100946.16;5056565;28;1254;-26
2021/05/26 10:05:25;;;;;;;;;;;;;;;26.98;35.49;100955.47;5056835;28;812;-27
2021/05/26 10:07:57;;;;;;;;;;;;;;;26.94;35.53;100954.16;5056798;28;817;-27
2021/05/26 10:10:23;;;;;;;;;;;;;;;27.24;34.49;100953.50;5056929;28;1978;-27
2021/05/26 10:12:54;;;;;;;;;;;;;;;27.38;33.71;100955.44;5056412;28;1296;-26
2021/05/26 10:15:20;;;;;;;;;;;;;;;27.49;32.91;100959.56;5056765;28;801;-27
2021/05/26 10:17:50;;;;;;;;;;;;;;;27.55;32.70;100958.00;5056513;28;894;-26
2021/05/26 10:20:15;;;;;;;;;;;;;;;27.50;31.90;100953.16;5056817;28;728;-28
2021/05/26 10:22:40;;;;;;;;;;;;;;;27.43;31.93;100954.03;5056175;28;752;-27
2021/05/26 10:25:06;;;;;;;;;;;;;;;27.47;32.19;100956.22;5056279;28;836;-27
2021/05/26 10:27:35;;;;;;;;;;;;;;;27.46;32.64;100953.69;5056590;28;847;-26
2021/05/26 10:30:02;;;;;;;;;;;;;;;27.48;32.75;100951.63;5056438;28;995;-27
2021/05/26 10:32:28;;;;;;;;;;;;;;;27.51;32.80;100944.00;5056521;28;1914;-29
2021/05/26 10:34:54;;;;;;;;;;;;;;;27.54;32.94;100944.69;5056129;28;867;-28
2021/05/26 10:37:26;;;;;;;;;;;;;;;27.36;33.12;100946.66;5056357;28;850;-29
2021/05/26 10:39:51;;;;;;;;;;;;;;;27.36;33.24;100948.53;5056574;28;796;-28
2021/05/26 10:42:27;;;;;;;;;;;;;;;27.31;34.60;100945.53;5055905;28;855;-28
2021/05/26 10:44:55;;;;;;;;;;;;;;;27.05;36.24;100944.00;5056725;28;960;-28
2021/05/26 10:47:35;;;;;;;;;;;;;;;26.90;36.23;100942.03;5055881;28;831;-28
2021/05/26 10:50:01;;;;;;;;;;;;;;;26.78;36.06;100950.53;5056002;28;820;-28
2021/05/26 10:52:26;;;;;;;;;;;;;;;26.95;35.49;100936.94;5056359;28;1922;-30
2021/05/26 10:54:51;;;;;;;;;;;;;;;27.14;35.00;100942.94;5055551;28;1127;-29
2021/05/26 10:57:16;;;;;;;;;;;;;;;27.21;35.33;100949.28;5056247;28;760;-29
2021/05/26 10:59:42;;;;;;;;;;;;;;;27.23;35.26;100952.66;5038097;28;1051;-29
2021/05/26 11:02:10;;;;;;;;;;;;;;;27.27;34.65;100955.84;5037669;28;1136;-28
2021/05/26 11:04:39;;;;;;;;;;;;;;;27.32;34.79;100952.59;5056228;28;835;-29
2021/05/26 11:07:35;;;;;;;;;;;;;;;27.36;34.88;100945.84;5056082;28;835;-28
2021/05/26 11:10:03;;;;;;;;;;;;;;;27.36;34.88;100949.34;5055685;28;1093;-27
2021/05/26 11:12:28;;;;;;;;;;;;;;;27.41;34.95;100939.88;5056197;28;1960;-28
2021/05/26 11:14:54;;;;;;;;;;;;;;;27.53;34.87;100951.94;5056118;28;955;-27
2021/05/26 11:17:25;;;;;;;;;;;;;;;27.58;34.88;100949.53;5055378;28;796;-28
2021/05/26 11:19:51;;;;;;;;;;;;;;;27.55;34.85;100952.59;5056203;28;803;-28
2021/05/26 11:22:18;;;;;;;;;;;;;;;27.70;34.63;100949.13;5056011;28;787;-29
2021/05/26 11:24:44;;;;;;;;;;;;;;;27.73;34.84;100959.56;5056005;28;822;-28
2021/05/26 11:27:16;;;;;;;;;;;;;;;27.72;34.56;100947.09;5056203;28;763;-30
2021/05/26 11:29:41;;;;;;;;;;;;;;;27.74;34.96;100945.06;5055650;28;971;-27
2021/05/26 11:32:13;;;;;;;;;;;;;;;27.81;35.09;100943.28;5055447;28;1977;-27
2021/05/26 11:34:39;;;;;;;;;;;;;;;27.86;34.74;100951.69;5056018;28;808;-29
2021/05/26 11:37:05;;;;;;;;;;;;;;;27.82;34.69;100944.97;5059401;28;827;-27
2021/05/26 11:39:32;;;;;;;;;;;;;;;27.74;34.26;100936.94;5059559;28;780;-28
2021/05/26 11:42:07;;;;;;;;;;;;;;;27.75;35.00;100935.91;5059744;28;796;-29
2021/05/26 11:44:39;;;;;;;;;;;;;;;27.43;34.65;100935.13;5059247;28;983;-29
2021/05/26 11:47:04;;;;;;;;;;;;;;;27.50;34.38;100942.34;5059650;28;740;-27
2021/05/26 11:49:34;;;;;;;;;;;;;;;27.42;34.30;100937.00;5059723;28;827;-29
2021/05/26 11:52:03;;;;;;;;;;;;;;;27.42;34.24;100931.59;5059538;28;1968;-27
2021/05/26 11:54:29;;;;;;;;;;;;;;;27.50;34.74;100942.34;5059317;28;807;-29
2021/05/26 11:56:58;;;;;;;;;;;;;;;27.58;34.41;100943.28;5059639;28;863;-28
2021/05/26 11:59:27;;;;;;;;;;;;;;;27.36;33.91;100943.13;5059225;28;991;-26
2021/05/26 12:01:52;;;;;;;;;;;;;;;27.35;34.47;100944.13;5059092;28;744;-29
2021/05/26 12:04:19;;;;;;;;;;;;;;;27.29;34.17;100934.06;5074894;28;837;-29
2021/05/26 12:06:44;;;;;;;;;;;;;;;27.16;34.21;100946.28;5058773;28;776;-26
2021/05/26 12:09:23;;;;;;;;;;;;;;;27.17;34.94;100947.13;5059032;28;1112;-29
2021/05/26 12:11:48;;;;;;;;;;;;;;;27.33;34.81;100948.88;5059086;28;1906;-29
2021/05/26 12:14:23;;;;;;;;;;;;;;;27.01;35.29;100943.47;5058725;28;1080;-26
2021/05/26 12:16:48;;;;;;;;;;;;;;;26.86;35.65;100943.41;5058948;28;768;-28
2021/05/26 12:19:13;;;;;;;;;;;;;;;26.94;36.75;100935.28;5059009;28;844;-27
2021/05/26 12:21:38;;;;;;;;;;;;;;;27.21;35.45;100941.19;5058869;28;784;-26
2021/05/26 12:24:06;;;;;;;;;;;;;;;27.52;34.93;100939.47;5058831;28;847;-29
2021/05/26 12:26:34;;;;;;;;;;;;;;;27.59;35.09;100947.69;5058733;28;1444;-27
2021/05/26 12:29:03;;;;;;;;;;;;;;;27.59;35.13;100944.97;5058859;28;971;-29
2021/05/26 12:31:28;;;;;;;;;;;;;;;27.65;35.35;100949.66;5058516;28;1917;-29
2021/05/26 12:33:55;;;;;;;;;;;;;;;27.77;34.90;100946.53;5058933;28;799;-28
2021/05/26 12:36:21;;;;;;;;;;;;;;;27.73;35.13;100946.91;5058854;28;825;-28
2021/05/26 12:38:47;;;;;;;;;;;;;;;27.70;35.55;100946.44;5058124;28;804;-29
2021/05/26 12:41:22;;;;;;;;;;;;;;;27.84;35.05;100942.91;5058743;28;807;-29
2021/05/26 12:43:48;;;;;;;;;;;;;;;27.92;35.29;100941.16;5058674;28;984;-28
2021/05/26 12:46:32;;;;;;;;;;;;;;;27.85;35.49;100941.06;5057732;28;776;-26
2021/05/26 12:48:57;;;;;;;;;;;;;;;27.82;35.58;100938.72;5058161;28;1154;-28
2021/05/26 12:51:23;;;;;;;;;;;;;;;27.81;35.65;100937.88;5058039;28;2021;-27